createdAt,value
2017-03-01T00:00:02.149Z,997.1
2017-03-01T00:01:04.645Z,997
2017-03-01T00:02:07.602Z,997.1
2017-03-01T00:03:10.350Z,997.2
2017-03-01T00:04:12.828Z,997.1
2017-03-01T00:05:15.302Z,997.3
2017-03-01T00:06:17.761Z,997.2
2017-03-01T00:07:20.231Z,997.1
2017-03-01T00:08:23.487Z,997.2
2017-03-01T00:09:25.432Z,997.3
2017-03-01T00:10:28.218Z,997.3
2017-03-01T00:11:30.500Z,997.3
2017-03-01T00:12:33.478Z,997.4
2017-03-01T00:13:36.205Z,997.4
2017-03-01T00:14:38.652Z,997.4
2017-03-01T00:15:41.147Z,997.4
2017-03-01T00:16:43.597Z,997.4
2017-03-01T00:17:46.049Z,997.4
2017-03-01T00:18:49.254Z,997.5
2017-03-01T00:19:51.199Z,997.5
2017-03-01T00:21:56.602Z,997.6
2017-03-01T00:22:59.072Z,997.5
2017-03-01T00:24:01.800Z,997.5
2017-03-01T00:25:04.086Z,997.6
2017-03-01T00:26:07.044Z,997.5
2017-03-01T00:27:09.518Z,997.5
2017-03-01T00:29:14.670Z,997.6
2017-03-01T00:30:17.128Z,997.7
2017-03-01T00:31:19.582Z,997.7
2017-03-01T00:32:22.552Z,997.7
2017-03-01T00:33:25.001Z,997.8
2017-03-01T00:34:27.702Z,997.8
2017-03-01T00:35:29.996Z,998
2017-03-01T00:36:32.782Z,997.8
2017-03-01T00:37:35.247Z,997.8
2017-03-01T00:38:37.698Z,997.8
2017-03-01T00:39:40.739Z,997.8
2017-03-01T00:40:43.186Z,997.8
2017-03-01T00:41:45.627Z,997.8
2017-03-01T00:42:48.098Z,997.8
2017-03-01T00:43:50.550Z,997.8
2017-03-01T00:44:53.787Z,997.8
2017-03-01T00:45:55.726Z,997.7
2017-03-01T00:46:58.577Z,997.8
2017-03-01T00:48:01.022Z,997.8
2017-03-01T00:49:03.478Z,997.8
2017-03-01T00:50:06.693Z,997.8
2017-03-01T00:51:08.991Z,998
2017-03-01T00:52:11.455Z,998
2017-03-01T00:53:13.903Z,998
2017-03-01T00:54:16.359Z,998
2017-03-01T00:56:21.962Z,998.1
2017-03-01T00:57:24.413Z,998.1
2017-03-01T00:58:26.859Z,998.1
2017-03-01T00:59:29.696Z,998.1
2017-03-01T01:00:32.161Z,998.2
2017-03-01T01:01:34.865Z,998.2
2017-03-01T01:02:37.312Z,998.2
2017-03-01T01:03:39.759Z,998.2
2017-03-01T01:05:45.116Z,998.2
2017-03-01T01:06:47.821Z,998.3
2017-03-01T01:07:50.271Z,998.3
2017-03-01T01:08:52.720Z,998.3
2017-03-01T01:09:55.198Z,998.3
2017-03-01T01:10:57.656Z,998.4
2017-03-01T01:12:00.863Z,998.4
2017-03-01T01:13:03.053Z,998.4
2017-03-01T01:14:05.520Z,998.3
2017-03-01T01:15:08.299Z,998.3
2017-03-01T01:16:10.594Z,998.3
2017-03-01T01:17:13.626Z,998.4
2017-03-01T01:18:16.077Z,998.4
2017-03-01T01:19:18.535Z,998.5
2017-03-01T01:20:21.324Z,998.5
2017-03-01T01:21:23.779Z,998.6
2017-03-01T01:22:26.477Z,998.6
2017-03-01T01:23:28.799Z,998.6
2017-03-01T01:24:31.590Z,998.6
2017-03-01T01:25:33.870Z,998.7
2017-03-01T01:26:36.664Z,998.7
2017-03-01T01:27:39.361Z,998.7
2017-03-01T01:28:41.842Z,998.7
2017-03-01T01:29:44.473Z,998.7
2017-03-01T01:30:46.926Z,998.7
2017-03-01T01:31:49.705Z,998.8
2017-03-01T01:32:52.421Z,998.8
2017-03-01T01:33:54.706Z,998.7
2017-03-01T01:34:57.156Z,998.7
2017-03-01T01:35:59.603Z,998.7
2017-03-01T01:37:02.556Z,998.7
2017-03-01T01:38:05.282Z,998.6
2017-03-01T01:39:07.744Z,998.6
2017-03-01T01:40:10.194Z,998.6
2017-03-01T01:41:12.470Z,998.5
2017-03-01T01:42:15.421Z,998.5
2017-03-01T01:44:20.540Z,998.6
2017-03-01T01:45:22.996Z,998.6
2017-03-01T01:47:28.199Z,998.6
2017-03-01T01:48:30.477Z,998.6
2017-03-01T01:49:33.728Z,998.6
2017-03-01T01:50:35.687Z,998.6
2017-03-01T01:51:38.672Z,998.6
2017-03-01T01:52:41.139Z,998.5
2017-03-01T01:53:43.585Z,998.6
2017-03-01T01:54:46.308Z,998.6
2017-03-01T01:55:48.768Z,998.6
2017-03-01T01:56:51.214Z,998.5
2017-03-01T01:57:53.677Z,998.5
2017-03-01T01:58:56.630Z,998.5
2017-03-01T01:59:59.324Z,998.5
2017-03-01T02:01:01.604Z,998.6
2017-03-01T02:02:04.058Z,998.6
2017-03-01T02:03:07.009Z,998.6
2017-03-01T02:04:09.461Z,998.6
2017-03-01T02:05:12.173Z,998.6
2017-03-01T02:06:14.620Z,998.6
2017-03-01T02:07:16.897Z,998.6
2017-03-01T02:08:19.847Z,998.7
2017-03-01T02:09:22.289Z,998.5
2017-03-01T02:10:24.987Z,998.6
2017-03-01T02:11:27.432Z,998.6
2017-03-01T02:12:29.716Z,998.7
2017-03-01T02:13:32.667Z,998.6
2017-03-01T02:14:35.112Z,998.7
2017-03-01T02:15:37.810Z,998.7
2017-03-01T02:16:40.267Z,998.7
2017-03-01T02:17:42.722Z,998.7
2017-03-01T02:18:45.170Z,998.7
2017-03-01T02:19:48.125Z,998.7
2017-03-01T02:20:50.657Z,998.7
2017-03-01T02:21:53.113Z,998.7
2017-03-01T02:22:55.577Z,998.7
2017-03-01T02:23:58.545Z,998.7
2017-03-01T02:26:03.671Z,998.8
2017-03-01T02:27:06.118Z,998.8
2017-03-01T02:28:08.576Z,998.7
2017-03-01T02:30:13.643Z,998.7
2017-03-01T02:31:16.419Z,998.7
2017-03-01T02:32:18.867Z,998.7
2017-03-01T02:33:21.324Z,998.7
2017-03-01T02:34:24.285Z,998.7
2017-03-01T02:35:26.742Z,998.7
2017-03-01T02:36:29.478Z,998.7
2017-03-01T02:37:31.922Z,998.7
2017-03-01T02:38:34.392Z,998.7
2017-03-01T02:40:39.255Z,998.7
2017-03-01T02:42:44.700Z,998.8
2017-03-01T02:43:47.143Z,998.8
2017-03-01T02:44:49.622Z,998.9
2017-03-01T02:45:52.081Z,998.8
2017-03-01T02:46:54.877Z,998.8
2017-03-01T02:47:57.590Z,998.8
2017-03-01T02:49:00.039Z,998.8
2017-03-01T02:50:02.487Z,998.8
2017-03-01T02:51:05.278Z,998.8
2017-03-01T02:52:07.720Z,998.8
2017-03-01T02:53:10.435Z,998.8
2017-03-01T02:54:12.902Z,998.8
2017-03-01T02:55:15.365Z,998.8
2017-03-01T02:56:17.821Z,998.8
2017-03-01T02:57:20.788Z,998.9
2017-03-01T02:58:23.540Z,998.8
2017-03-01T02:59:25.508Z,998.8
2017-03-01T03:00:28.459Z,998.8
2017-03-01T03:01:30.952Z,998.8
2017-03-01T03:02:33.234Z,998.8
2017-03-01T03:03:36.447Z,998.8
2017-03-01T03:04:38.389Z,998.8
2017-03-01T03:05:41.353Z,998.8
2017-03-01T03:06:43.799Z,998.8
2017-03-01T03:07:46.250Z,998.8
2017-03-01T03:08:48.944Z,998.8
2017-03-01T03:09:51.388Z,998.8
2017-03-01T03:10:53.842Z,998.8
2017-03-01T03:11:56.824Z,998.8
2017-03-01T03:12:59.291Z,998.9
2017-03-01T03:14:02.038Z,998.8
2017-03-01T03:15:04.151Z,998.9
2017-03-01T03:16:07.096Z,998.9
2017-03-01T03:17:09.374Z,998.8
2017-03-01T03:18:11.823Z,998.8
2017-03-01T03:19:14.911Z,998.8
2017-03-01T03:20:17.360Z,998.8
2017-03-01T03:21:19.803Z,998.8
2017-03-01T03:22:22.260Z,998.8
2017-03-01T03:23:24.719Z,998.9
2017-03-01T03:25:30.377Z,998.9
2017-03-01T03:26:32.820Z,998.9
2017-03-01T03:27:35.282Z,998.8
2017-03-01T03:28:37.728Z,998.8
2017-03-01T03:29:40.177Z,998.9
2017-03-01T03:31:45.787Z,998.8
2017-03-01T03:32:47.753Z,998.8
2017-03-01T03:33:50.561Z,998.8
2017-03-01T03:34:53.067Z,998.8
2017-03-01T03:35:55.617Z,998.8
2017-03-01T03:36:58.419Z,998.8
2017-03-01T03:38:00.936Z,998.9
2017-03-01T03:39:03.281Z,998.9
2017-03-01T03:40:05.795Z,998.9
2017-03-01T03:41:08.801Z,998.9
2017-03-01T03:42:11.661Z,998.8
2017-03-01T03:43:13.666Z,998.9
2017-03-01T03:44:16.174Z,998.8
2017-03-01T03:45:18.719Z,998.8
2017-03-01T03:46:21.242Z,998.8
2017-03-01T03:47:24.079Z,998.8
2017-03-01T03:48:26.423Z,998.8
2017-03-01T03:49:28.883Z,998.8
2017-03-01T03:50:31.729Z,998.8
2017-03-01T03:51:34.077Z,998.8
2017-03-01T03:52:36.916Z,998.8
2017-03-01T03:53:39.429Z,998.8
2017-03-01T03:54:41.930Z,998.8
2017-03-01T03:55:44.485Z,998.7
2017-03-01T03:56:46.997Z,998.7
2017-03-01T03:57:49.751Z,998.7
2017-03-01T03:58:52.315Z,998.7
2017-03-01T03:59:54.833Z,998.7
2017-03-01T04:00:57.333Z,998.7
2017-03-01T04:02:00.186Z,998.7
2017-03-01T04:03:02.952Z,998.6
2017-03-01T04:04:04.970Z,998.7
2017-03-01T04:05:07.487Z,998.7
2017-03-01T04:06:10.403Z,998.6
2017-03-01T04:07:12.916Z,998.7
2017-03-01T04:08:15.740Z,998.7
2017-03-01T04:09:17.744Z,998.7
2017-03-01T04:10:20.247Z,998.6
2017-03-01T04:11:23.257Z,998.7
2017-03-01T04:12:25.763Z,998.7
2017-03-01T04:13:28.624Z,998.6
2017-03-01T04:14:30.630Z,998.6
2017-03-01T04:15:33.134Z,998.7
2017-03-01T04:16:35.628Z,998.7
2017-03-01T04:17:38.646Z,998.7
2017-03-01T04:18:41.466Z,998.7
2017-03-01T04:19:43.493Z,998.7
2017-03-01T04:20:46.005Z,998.6
2017-03-01T04:21:48.515Z,998.6
2017-03-01T04:22:51.031Z,998.6
2017-03-01T04:23:54.285Z,998.6
2017-03-01T04:24:56.287Z,998.6
2017-03-01T04:25:58.794Z,998.6
2017-03-01T04:27:01.363Z,998.5
2017-03-01T04:28:03.881Z,998.5
2017-03-01T04:29:07.147Z,998.5
2017-03-01T04:30:09.156Z,998.5
2017-03-01T04:31:11.665Z,998.4
2017-03-01T04:32:14.181Z,998.4
2017-03-01T04:33:16.698Z,998.4
2017-03-01T04:34:20.019Z,998.4
2017-03-01T04:35:22.030Z,998.5
2017-03-01T04:36:24.385Z,998.5
2017-03-01T04:37:27.394Z,998.4
2017-03-01T04:38:29.739Z,998.5
2017-03-01T04:39:32.553Z,998.5
2017-03-01T04:40:35.074Z,998.6
2017-03-01T04:41:37.588Z,998.6
2017-03-01T04:42:40.089Z,998.5
2017-03-01T04:43:42.763Z,998.5
2017-03-01T04:44:45.558Z,998.5
2017-03-01T04:45:47.570Z,998.5
2017-03-01T04:46:50.464Z,998.5
2017-03-01T04:47:52.985Z,998.5
2017-03-01T04:48:55.493Z,998.4
2017-03-01T04:49:58.248Z,998.4
2017-03-01T04:51:00.248Z,998.3
2017-03-01T04:52:03.254Z,998.3
2017-03-01T04:53:05.756Z,998.3
2017-03-01T04:54:08.263Z,998.2
2017-03-01T04:55:11.064Z,998.3
2017-03-01T04:56:13.075Z,998.3
2017-03-01T04:57:16.105Z,998.3
2017-03-01T04:58:18.458Z,998.3
2017-03-01T05:00:23.669Z,998.3
2017-03-01T05:01:26.174Z,998.2
2017-03-01T05:02:28.694Z,998.2
2017-03-01T05:03:31.212Z,998.3
2017-03-01T05:04:33.549Z,998.2
2017-03-01T05:05:36.807Z,998.2
2017-03-01T05:06:38.816Z,998.2
2017-03-01T05:07:41.669Z,998.1
2017-03-01T05:08:44.228Z,998.1
2017-03-01T05:09:46.743Z,998.1
2017-03-01T05:10:49.501Z,998.1
2017-03-01T05:11:51.503Z,998.1
2017-03-01T05:12:54.057Z,998.1
2017-03-01T05:13:57.071Z,998.1
2017-03-01T05:14:59.577Z,998.1
2017-03-01T05:16:02.399Z,998.1
2017-03-01T05:17:04.400Z,998
2017-03-01T05:18:06.908Z,998.1
2017-03-01T05:19:09.414Z,998
2017-03-01T05:20:12.424Z,998.1
2017-03-01T05:21:15.060Z,998
2017-03-01T05:22:17.569Z,998.1
2017-03-01T05:23:20.083Z,998.1
2017-03-01T05:24:22.595Z,998
2017-03-01T05:25:24.948Z,998.1
2017-03-01T05:26:27.770Z,998
2017-03-01T05:27:30.280Z,998.1
2017-03-01T05:28:32.782Z,998
2017-03-01T05:29:35.119Z,998.1
2017-03-01T05:30:37.626Z,998.1
2017-03-01T05:31:40.769Z,998.1
2017-03-01T05:32:42.780Z,998
2017-03-01T05:33:45.295Z,998.2
2017-03-01T05:34:48.148Z,998.1
2017-03-01T05:35:50.690Z,998.2
2017-03-01T05:36:53.508Z,998.1
2017-03-01T05:37:55.857Z,998.1
2017-03-01T05:38:58.378Z,998.2
2017-03-01T05:40:00.899Z,998.2
2017-03-01T05:41:03.400Z,998.2
2017-03-01T05:42:06.222Z,998.3
2017-03-01T05:43:08.565Z,998.3
2017-03-01T05:44:11.070Z,998.3
2017-03-01T05:45:13.604Z,998.4
2017-03-01T05:46:16.116Z,998.4
2017-03-01T05:47:18.871Z,998.4
2017-03-01T05:49:23.780Z,998.4
2017-03-01T05:50:26.630Z,998.5
2017-03-01T05:51:29.140Z,998.5
2017-03-01T05:52:31.895Z,998.5
2017-03-01T05:53:34.241Z,998.5
2017-03-01T05:54:36.749Z,998.6
2017-03-01T05:55:39.267Z,998.5
2017-03-01T05:56:41.803Z,998.5
2017-03-01T05:57:44.557Z,998.6
2017-03-01T05:58:47.061Z,998.5
2017-03-01T05:59:49.564Z,998.5
2017-03-01T06:00:52.067Z,998.5
2017-03-01T06:01:54.582Z,998.5
2017-03-01T06:02:57.424Z,998.6
2017-03-01T06:03:59.479Z,998.6
2017-03-01T06:05:02.492Z,998.6
2017-03-01T06:06:05.030Z,998.6
2017-03-01T06:07:07.538Z,998.7
2017-03-01T06:08:10.304Z,998.7
2017-03-01T06:09:12.301Z,998.7
2017-03-01T06:10:15.323Z,998.7
2017-03-01T06:11:17.842Z,998.7
2017-03-01T06:12:20.353Z,998.7
2017-03-01T06:13:23.123Z,998.7
2017-03-01T06:14:25.479Z,998.7
2017-03-01T06:15:27.996Z,998.8
2017-03-01T06:16:30.517Z,998.8
2017-03-01T06:17:33.038Z,998.8
2017-03-01T06:18:35.857Z,998.9
2017-03-01T06:19:38.364Z,998.9
2017-03-01T06:20:40.872Z,998.9
2017-03-01T06:21:43.379Z,998.9
2017-03-01T06:22:45.901Z,999
2017-03-01T06:24:51.107Z,999.1
2017-03-01T06:25:53.606Z,999.1
2017-03-01T06:26:56.111Z,999.2
2017-03-01T06:27:58.629Z,999.2
2017-03-01T06:29:00.971Z,999.2
2017-03-01T06:30:04.242Z,999.3
2017-03-01T06:31:06.247Z,999.3
2017-03-01T06:32:08.778Z,999.4
2017-03-01T06:33:11.617Z,999.4
2017-03-01T06:34:14.164Z,999.5
2017-03-01T06:35:16.963Z,999.4
2017-03-01T06:36:18.960Z,999.5
2017-03-01T06:38:24.207Z,999.6
2017-03-01T06:39:27.065Z,999.5
2017-03-01T06:40:29.854Z,999.5
2017-03-01T06:41:31.861Z,999.5
2017-03-01T06:42:34.374Z,999.5
2017-03-01T06:43:36.885Z,999.6
2017-03-01T06:44:39.456Z,999.5
2017-03-01T06:45:42.219Z,999.5
2017-03-01T06:46:44.734Z,999.5
2017-03-01T06:47:47.250Z,999.5
2017-03-01T06:48:49.843Z,999.6
2017-03-01T06:49:52.352Z,999.6
2017-03-01T06:50:55.118Z,999.7
2017-03-01T06:51:57.623Z,999.7
2017-03-01T06:53:00.142Z,999.6
2017-03-01T06:54:02.700Z,999.8
2017-03-01T06:55:05.223Z,999.7
2017-03-01T06:56:07.999Z,999.7
2017-03-01T06:57:10.523Z,999.8
2017-03-01T06:58:12.877Z,999.8
2017-03-01T06:59:15.403Z,999.8
2017-03-01T07:00:17.914Z,999.8
2017-03-01T07:01:20.728Z,999.8
2017-03-01T07:02:23.245Z,999.9
2017-03-01T07:03:25.747Z,999.8
2017-03-01T07:04:28.596Z,999.9
2017-03-01T07:05:30.771Z,999.9
2017-03-01T07:06:33.537Z,999.9
2017-03-01T07:07:36.041Z,999.9
2017-03-01T07:08:38.549Z,1000
2017-03-01T07:09:41.098Z,999.9
2017-03-01T07:10:43.597Z,999.9
2017-03-01T07:11:46.365Z,999.9
2017-03-01T07:12:48.868Z,999.9
2017-03-01T07:13:51.384Z,999.9
2017-03-01T07:14:53.890Z,999.9
2017-03-01T07:15:56.404Z,1000
2017-03-01T07:16:59.298Z,1000
2017-03-01T07:18:01.796Z,1000
2017-03-01T07:20:06.718Z,1000
2017-03-01T07:21:09.561Z,1000
2017-03-01T07:22:12.317Z,1000
2017-03-01T07:23:14.329Z,1000.1
2017-03-01T07:24:16.841Z,1000.1
2017-03-01T07:25:19.393Z,1000.1
2017-03-01T07:26:22.244Z,1000.2
2017-03-01T07:28:27.656Z,1000.2
2017-03-01T07:29:29.993Z,1000.2
2017-03-01T07:30:32.332Z,1000.2
2017-03-01T07:31:35.192Z,1000.2
2017-03-01T07:32:37.704Z,1000.2
2017-03-01T07:33:40.465Z,1000.2
2017-03-01T07:34:42.822Z,1000.2
2017-03-01T07:35:45.347Z,1000.2
2017-03-01T07:36:47.891Z,1000.2
2017-03-01T07:37:50.419Z,1000.3
2017-03-01T07:38:53.230Z,1000.3
2017-03-01T07:39:55.767Z,1000.3
2017-03-01T07:40:58.289Z,1000.3
2017-03-01T07:42:00.803Z,1000.3
2017-03-01T07:43:03.140Z,1000.3
2017-03-01T07:44:06.289Z,1000.3
2017-03-01T07:45:08.633Z,1000.4
2017-03-01T07:46:11.147Z,1000.3
2017-03-01T07:47:13.651Z,1000.3
2017-03-01T07:48:16.158Z,1000.3
2017-03-01T07:49:18.935Z,1000.3
2017-03-01T07:50:21.282Z,1000.3
2017-03-01T07:51:23.620Z,1000.3
2017-03-01T07:52:26.130Z,1000.4
2017-03-01T07:53:29.134Z,1000.4
2017-03-01T07:54:31.737Z,1000.4
2017-03-01T07:55:34.085Z,1000.4
2017-03-01T07:56:36.664Z,1000.4
2017-03-01T07:57:39.163Z,1000.4
2017-03-01T07:58:41.690Z,1000.4
2017-03-01T07:59:44.506Z,1000.4
2017-03-01T08:00:46.904Z,1000.4
2017-03-01T08:01:49.407Z,1000.4
2017-03-01T08:02:19.748Z,1000.4
2017-03-01T08:02:52.057Z,1000.4
2017-03-01T08:03:54.744Z,1000.4
2017-03-01T08:04:57.496Z,1000.4
2017-03-01T08:05:59.996Z,1000.4
2017-03-01T08:07:02.399Z,1000.4
2017-03-01T08:08:04.913Z,1000.3
2017-03-01T08:09:07.430Z,1000.3
2017-03-01T08:10:10.208Z,1000.3
2017-03-01T08:11:12.708Z,1000.3
2017-03-01T08:12:15.066Z,1000.3
2017-03-01T08:13:17.576Z,1000.2
2017-03-01T08:14:20.598Z,1000.3
2017-03-01T08:15:23.414Z,1000.3
2017-03-01T08:16:25.413Z,1000.3
2017-03-01T08:17:27.934Z,1000.3
2017-03-01T08:19:33.356Z,1000.3
2017-03-01T08:20:36.105Z,1000.3
2017-03-01T08:21:38.639Z,1000.3
2017-03-01T08:22:41.177Z,1000.3
2017-03-01T08:23:43.691Z,1000.3
2017-03-01T08:24:46.023Z,1000.3
2017-03-01T08:25:48.782Z,1000.3
2017-03-01T08:26:51.458Z,1000.3
2017-03-01T08:27:53.971Z,1000.3
2017-03-01T08:28:56.486Z,1000.3
2017-03-01T08:29:58.994Z,1000.3
2017-03-01T08:31:01.752Z,1000.3
2017-03-01T08:32:04.273Z,1000.4
2017-03-01T08:33:06.775Z,1000.4
2017-03-01T08:34:09.301Z,1000.4
2017-03-01T08:35:11.659Z,1000.4
2017-03-01T08:36:14.995Z,1000.4
2017-03-01T08:37:17.019Z,1000.5
2017-03-01T08:38:19.562Z,1000.4
2017-03-01T08:39:22.069Z,1000.4
2017-03-01T08:40:24.596Z,1000.4
2017-03-01T08:41:27.861Z,1000.4
2017-03-01T08:43:32.787Z,1000.4
2017-03-01T08:44:35.286Z,1000.3
2017-03-01T08:45:37.806Z,1000.4
2017-03-01T08:46:40.563Z,1000.4
2017-03-01T08:47:43.072Z,1000.4
2017-03-01T08:48:45.590Z,1000.3
2017-03-01T08:49:48.094Z,1000.3
2017-03-01T08:50:50.426Z,1000.3
2017-03-01T08:51:53.705Z,1000.3
2017-03-01T08:52:56.045Z,1000.3
2017-03-01T08:53:58.560Z,1000.3
2017-03-01T08:55:00.947Z,1000.3
2017-03-01T08:56:03.451Z,1000.3
2017-03-01T08:57:06.296Z,1000.3
2017-03-01T08:58:08.810Z,1000.3
2017-03-01T08:59:11.318Z,1000.3
2017-03-01T09:00:13.831Z,1000.3
2017-03-01T09:01:16.358Z,1000.3
2017-03-01T09:02:19.531Z,1000.2
2017-03-01T09:03:21.553Z,1000.3
2017-03-01T09:04:24.450Z,1000.3
2017-03-01T09:05:26.952Z,1000.3
2017-03-01T09:06:29.468Z,1000.3
2017-03-01T09:07:32.593Z,1000.4
2017-03-01T09:08:34.589Z,1000.3
2017-03-01T09:09:37.136Z,1000.3
2017-03-01T09:10:39.639Z,1000.3
2017-03-01T09:11:42.657Z,1000.3
2017-03-01T09:12:45.419Z,1000.3
2017-03-01T09:13:47.761Z,1000.3
2017-03-01T09:15:52.673Z,1000.3
2017-03-01T09:16:55.551Z,1000.3
2017-03-01T09:17:58.370Z,1000.4
2017-03-01T09:19:00.388Z,1000.3
2017-03-01T09:20:03.402Z,1000.4
2017-03-01T09:21:05.747Z,1000.3
2017-03-01T09:22:08.278Z,1000.3
2017-03-01T09:23:11.419Z,1000.3
2017-03-01T09:24:13.761Z,1000.3
2017-03-01T09:25:16.282Z,1000.3
2017-03-01T09:26:18.788Z,1000.4
2017-03-01T09:27:21.323Z,1000.3
2017-03-01T09:28:24.145Z,1000.3
2017-03-01T09:29:26.658Z,1000.3
2017-03-01T09:31:31.900Z,1000.4
2017-03-01T09:32:34.238Z,1000.3
2017-03-01T09:33:37.394Z,1000.4
2017-03-01T09:34:39.393Z,1000.4
2017-03-01T09:35:41.894Z,1000.4
2017-03-01T09:36:44.910Z,1000.3
2017-03-01T09:37:47.432Z,1000.3
2017-03-01T09:38:50.194Z,1000.3
2017-03-01T09:39:52.707Z,1000.4
2017-03-01T09:40:55.206Z,1000.4
2017-03-01T09:41:57.709Z,1000.4
2017-03-01T09:43:00.216Z,1000.4
2017-03-01T09:44:02.986Z,1000.4
2017-03-01T09:45:05.538Z,1000.3
2017-03-01T09:46:08.060Z,1000.3
2017-03-01T09:47:10.447Z,1000.4
2017-03-01T09:48:13.465Z,1000.4
2017-03-01T09:49:16.220Z,1000.4
2017-03-01T09:50:18.241Z,1000.4
2017-03-01T09:51:21.253Z,1000.4
2017-03-01T09:52:23.673Z,1000.3
2017-03-01T09:53:26.518Z,1000.4
2017-03-01T09:54:29.322Z,1000.4
2017-03-01T09:55:31.333Z,1000.4
2017-03-01T09:56:34.339Z,1000.4
2017-03-01T09:57:36.845Z,1000.5
2017-03-01T09:58:39.183Z,1000.4
2017-03-01T09:59:42.346Z,1000.4
2017-03-01T10:00:44.360Z,1000.5
2017-03-01T10:01:47.223Z,1000.6
2017-03-01T10:02:49.721Z,1000.6
2017-03-01T10:03:52.228Z,1000.5
2017-03-01T10:04:55.029Z,1000.5
2017-03-01T10:05:57.370Z,1000.6
2017-03-01T10:07:00.243Z,1000.6
2017-03-01T10:08:02.757Z,1000.6
2017-03-01T10:09:05.280Z,1000.7
2017-03-01T10:10:08.097Z,1000.6
2017-03-01T10:11:10.607Z,1000.6
2017-03-01T10:12:13.120Z,1000.7
2017-03-01T10:13:15.625Z,1000.6
2017-03-01T10:14:18.142Z,1000.6
2017-03-01T10:15:21.468Z,1000.6
2017-03-01T10:16:23.479Z,1000.5
2017-03-01T10:17:26.000Z,1000.6
2017-03-01T10:18:28.854Z,1000.5
2017-03-01T10:20:34.016Z,1000.6
2017-03-01T10:21:36.531Z,1000.5
2017-03-01T10:22:39.036Z,1000.6
2017-03-01T10:23:41.872Z,1000.6
2017-03-01T10:24:44.377Z,1000.6
2017-03-01T10:25:47.152Z,1000.7
2017-03-01T10:26:49.658Z,1000.7
2017-03-01T10:28:55.083Z,1000.6
2017-03-01T10:29:57.606Z,1000.7
2017-03-01T10:31:00.368Z,1000.7
2017-03-01T10:33:05.288Z,1000.7
2017-03-01T10:34:07.817Z,1000.6
2017-03-01T10:35:10.344Z,1000.7
2017-03-01T10:36:13.178Z,1000.8
2017-03-01T10:37:15.702Z,1000.7
2017-03-01T10:38:18.041Z,1000.7
2017-03-01T10:39:21.071Z,1000.7
2017-03-01T10:40:23.589Z,1000.8
2017-03-01T10:41:26.245Z,1000.8
2017-03-01T10:42:28.746Z,1000.8
2017-03-01T10:43:31.109Z,1000.7
2017-03-01T10:44:34.116Z,1000.9
2017-03-01T10:45:36.633Z,1000.8
2017-03-01T10:46:39.223Z,1000.8
2017-03-01T10:47:41.769Z,1000.8
2017-03-01T10:48:44.294Z,1000.9
2017-03-01T10:49:46.809Z,1000.9
2017-03-01T10:50:49.818Z,1000.9
2017-03-01T10:51:52.635Z,1000.8
2017-03-01T10:52:54.973Z,1000.8
2017-03-01T10:53:57.520Z,1000.7
2017-03-01T10:54:59.878Z,1000.8
2017-03-01T10:56:02.404Z,1000.9
2017-03-01T10:57:05.744Z,1000.9
2017-03-01T10:58:07.768Z,1000.9
2017-03-01T10:59:10.265Z,1000.9
2017-03-01T11:00:13.270Z,1000.9
2017-03-01T11:01:15.633Z,1000.9
2017-03-01T11:02:18.449Z,1001
2017-03-01T11:03:20.952Z,1001
2017-03-01T11:04:23.451Z,1001.1
2017-03-01T11:05:25.965Z,1001.1
2017-03-01T11:06:28.468Z,1001
2017-03-01T11:07:31.783Z,1001
2017-03-01T11:08:33.797Z,1001.1
2017-03-01T11:10:39.218Z,1001.1
2017-03-01T11:11:41.551Z,1001
2017-03-01T11:12:44.822Z,1001.1
2017-03-01T11:13:46.831Z,1001.1
2017-03-01T11:14:49.333Z,1001.1
2017-03-01T11:15:52.334Z,1001.1
2017-03-01T11:16:54.856Z,1001.1
2017-03-01T11:17:57.443Z,1001
2017-03-01T11:18:59.963Z,1001.1
2017-03-01T11:20:02.477Z,1001
2017-03-01T11:21:05.146Z,1001.1
2017-03-01T11:22:08.039Z,1001.1
2017-03-01T11:23:10.846Z,1001.1
2017-03-01T11:24:12.887Z,1001
2017-03-01T11:25:15.465Z,1001
2017-03-01T11:26:18.475Z,1001
2017-03-01T11:27:20.997Z,1001
2017-03-01T11:29:26.182Z,1001
2017-03-01T11:30:28.694Z,1001
2017-03-01T11:31:31.213Z,1001
2017-03-01T11:32:34.054Z,1001
2017-03-01T11:33:36.568Z,1001
2017-03-01T11:34:39.340Z,1001
2017-03-01T11:35:41.851Z,1001
2017-03-01T11:36:44.196Z,1001
2017-03-01T11:37:46.711Z,1001
2017-03-01T11:38:49.726Z,1001
2017-03-01T11:39:52.549Z,1001
2017-03-01T11:40:54.565Z,1001
2017-03-01T11:41:57.574Z,1001
2017-03-01T11:42:59.912Z,1001
2017-03-01T11:44:02.432Z,1001
2017-03-01T11:45:05.735Z,1001
2017-03-01T11:46:07.742Z,1001
2017-03-01T11:47:10.246Z,1001
2017-03-01T11:48:12.812Z,1001
2017-03-01T11:49:15.373Z,1001.1
2017-03-01T11:51:21.044Z,1000.9
2017-03-01T11:52:23.553Z,1001
2017-03-01T11:53:25.900Z,1001
2017-03-01T11:54:28.740Z,1001
2017-03-01T11:55:31.250Z,1001
2017-03-01T11:56:34.074Z,1000.9
2017-03-01T11:57:36.425Z,1000.9
2017-03-01T11:58:39.269Z,1001
2017-03-01T11:59:41.784Z,1001
2017-03-01T12:00:44.337Z,1000.9
2017-03-01T12:01:47.163Z,1001
2017-03-01T12:02:49.674Z,1001
2017-03-01T12:03:52.192Z,1001
2017-03-01T12:04:55.044Z,1001.1
2017-03-01T12:05:57.408Z,1001.1
2017-03-01T12:07:00.225Z,1001.1
2017-03-01T12:08:02.561Z,1001.1
2017-03-01T12:09:05.072Z,1001.1
2017-03-01T12:10:08.089Z,1001.1
2017-03-01T12:11:10.592Z,1001.2
2017-03-01T12:12:13.346Z,1001.2
2017-03-01T12:13:15.706Z,1001.1
2017-03-01T12:14:18.547Z,1001.1
2017-03-01T12:15:21.053Z,1001.1
2017-03-01T12:16:23.564Z,1001.1
2017-03-01T12:17:26.322Z,1001.1
2017-03-01T12:18:28.846Z,1001.2
2017-03-01T12:19:31.349Z,1001.1
2017-03-01T12:20:34.191Z,1001.1
2017-03-01T12:21:36.726Z,1001.1
2017-03-01T12:22:39.379Z,1001.1
2017-03-01T12:23:41.717Z,1001.2
2017-03-01T12:24:44.223Z,1001.2
2017-03-01T12:25:47.081Z,1001.1
2017-03-01T12:26:49.594Z,1001.1
2017-03-01T12:27:52.400Z,1001.1
2017-03-01T12:28:54.909Z,1001.1
2017-03-01T12:29:57.267Z,1001.1
2017-03-01T12:31:00.277Z,1001.1
2017-03-01T12:32:02.777Z,1001.1
2017-03-01T12:33:05.368Z,1001.1
2017-03-01T12:34:07.872Z,1001.2
2017-03-01T12:35:10.542Z,1001.1
2017-03-01T12:36:13.046Z,1001.1
2017-03-01T12:37:15.884Z,1001.1
2017-03-01T12:38:18.646Z,1001.2
2017-03-01T12:39:21.165Z,1001.1
2017-03-01T12:40:23.685Z,1001.2
2017-03-01T12:41:26.253Z,1001.2
2017-03-01T12:42:28.758Z,1001.2
2017-03-01T12:43:31.518Z,1001.1
2017-03-01T12:44:34.020Z,1001.1
2017-03-01T12:45:36.858Z,1001.1
2017-03-01T12:46:39.368Z,1001.1
2017-03-01T12:47:41.700Z,1001.1
2017-03-01T12:48:45.005Z,1001.1
2017-03-01T12:49:47.008Z,1001.1
2017-03-01T12:50:50.023Z,1001.1
2017-03-01T12:51:52.533Z,1001.2
2017-03-01T12:52:55.037Z,1001.2
2017-03-01T12:53:57.823Z,1001.2
2017-03-01T12:55:00.335Z,1001.1
2017-03-01T12:56:02.882Z,1001.3
2017-03-01T12:57:05.728Z,1001.4
2017-03-01T12:58:08.242Z,1001.4
2017-03-01T12:59:11.052Z,1001.3
2017-03-01T13:01:15.975Z,1001.5
2017-03-01T13:02:18.495Z,1001.5
2017-03-01T13:03:21.003Z,1001.6
2017-03-01T13:04:24.138Z,1001.6
2017-03-01T13:05:26.141Z,1001.7
2017-03-01T13:06:29.003Z,1001.7
2017-03-01T13:07:31.549Z,1001.5
2017-03-01T13:08:34.069Z,1001.4
2017-03-01T13:09:36.873Z,1001.5
2017-03-01T13:10:39.439Z,1001.5
2017-03-01T13:11:41.968Z,1001.5
2017-03-01T13:13:47.248Z,1001.4
2017-03-01T13:14:50.003Z,1001.3
2017-03-01T13:15:52.511Z,1001.4
2017-03-01T13:16:55.010Z,1001.4
2017-03-01T13:17:57.520Z,1001.4
2017-03-01T13:19:00.029Z,1001.4
2017-03-01T13:20:03.182Z,1001.5
2017-03-01T13:21:05.523Z,1001.5
2017-03-01T13:22:07.871Z,1001.5
2017-03-01T13:23:10.558Z,1001.5
2017-03-01T13:24:13.083Z,1001.5
2017-03-01T13:25:15.895Z,1001.5
2017-03-01T13:26:18.231Z,1001.6
2017-03-01T13:28:23.491Z,1001.6
2017-03-01T13:29:26.348Z,1001.5
2017-03-01T13:30:29.161Z,1001.6
2017-03-01T13:31:31.667Z,1001.6
2017-03-01T13:32:34.187Z,1001.6
2017-03-01T13:33:36.519Z,1001.6
2017-03-01T13:34:39.037Z,1001.7
2017-03-01T13:35:42.302Z,1001.7
2017-03-01T13:36:44.635Z,1001.7
2017-03-01T13:37:46.971Z,1001.7
2017-03-01T13:38:49.484Z,1001.8
2017-03-01T13:39:52.335Z,1001.8
2017-03-01T13:40:55.097Z,1001.7
2017-03-01T13:41:57.609Z,1001.8
2017-03-01T13:42:59.947Z,1001.8
2017-03-01T13:44:02.466Z,1001.7
2017-03-01T13:45:05.483Z,1001.8
2017-03-01T13:46:08.356Z,1001.8
2017-03-01T13:47:10.375Z,1001.8
2017-03-01T13:48:12.898Z,1001.8